createdAt,value
2022-12-31T00:00:33.635Z,0.00
2022-12-31T00:01:33.583Z,0.00
2022-12-31T00:02:33.628Z,0.00
2022-12-31T00:03:33.517Z,0.00
2022-12-31T00:04:33.455Z,0.00
2022-12-31T00:05:33.390Z,0.00
2022-12-31T00:06:33.351Z,0.00
2022-12-31T00:07:54.312Z,0.00
2022-12-31T00:08:33.294Z,0.00
2022-12-31T00:09:33.262Z,0.00
2022-12-31T00:10:33.200Z,0.00
2022-12-31T00:11:33.171Z,0.00
2022-12-31T00:12:33.124Z,0.00
2022-12-31T00:13:33.077Z,0.00
2022-12-31T00:14:33.033Z,0.00
2022-12-31T00:15:32.993Z,0.00
2022-12-31T00:16:33.009Z,0.00
2022-12-31T00:17:32.911Z,0.00
2022-12-31T00:18:32.887Z,0.00
2022-12-31T00:19:32.852Z,0.00
2022-12-31T00:20:32.791Z,0.00
2022-12-31T00:21:32.754Z,0.00
2022-12-31T00:22:32.722Z,0.00
2022-12-31T00:23:32.673Z,0.00
2022-12-31T00:24:32.635Z,0.00
2022-12-31T00:25:32.601Z,0.00
2022-12-31T00:26:32.551Z,0.00
2022-12-31T00:27:32.529Z,0.00
2022-12-31T00:28:32.493Z,0.00
2022-12-31T00:29:32.432Z,0.00
2022-12-31T00:30:32.505Z,0.00
2022-12-31T00:31:32.359Z,0.00
2022-12-31T00:32:32.315Z,0.00
2022-12-31T00:33:32.281Z,0.00
2022-12-31T00:34:32.260Z,0.00
2022-12-31T00:35:32.201Z,0.00
2022-12-31T00:36:32.156Z,0.00
2022-12-31T00:37:32.113Z,0.00
2022-12-31T00:38:32.077Z,0.00
2022-12-31T00:39:32.046Z,0.00
2022-12-31T00:40:32.006Z,0.00
2022-12-31T00:41:31.956Z,0.00
2022-12-31T00:42:31.915Z,0.00
2022-12-31T00:43:31.881Z,0.00
2022-12-31T00:44:31.844Z,0.00
2022-12-31T00:45:31.801Z,0.00
2022-12-31T00:46:31.889Z,0.00
2022-12-31T00:47:31.719Z,0.00
2022-12-31T00:48:31.673Z,0.00
2022-12-31T00:49:31.636Z,0.00
2022-12-31T00:50:31.611Z,0.00
2022-12-31T00:51:31.565Z,0.00
2022-12-31T00:52:31.524Z,0.00
2022-12-31T00:53:31.475Z,0.00
2022-12-31T00:54:31.437Z,0.00
2022-12-31T00:55:31.395Z,0.00
2022-12-31T00:56:31.366Z,0.00
2022-12-31T00:57:31.322Z,0.00
2022-12-31T00:58:31.285Z,0.00
2022-12-31T00:59:31.236Z,0.00
2022-12-31T01:00:31.226Z,0.00
2022-12-31T01:01:31.411Z,0.00
2022-12-31T01:02:31.341Z,0.00
2022-12-31T01:03:31.100Z,0.00
2022-12-31T01:04:31.093Z,0.00
2022-12-31T01:05:30.996Z,0.00
2022-12-31T01:06:30.964Z,0.00
2022-12-31T01:07:30.920Z,0.00
2022-12-31T01:08:30.874Z,0.00
2022-12-31T01:09:30.843Z,0.00
2022-12-31T01:10:30.804Z,0.00
2022-12-31T01:11:30.758Z,0.00
2022-12-31T01:12:30.714Z,0.00
2022-12-31T01:13:30.672Z,0.00
2022-12-31T01:14:30.628Z,0.00
2022-12-31T01:15:30.678Z,0.00
2022-12-31T01:16:30.572Z,0.00
2022-12-31T01:17:30.529Z,0.00
2022-12-31T01:18:30.471Z,0.00
2022-12-31T01:19:30.452Z,0.00
2022-12-31T01:20:30.395Z,0.00
2022-12-31T01:21:30.361Z,0.00
2022-12-31T01:22:30.309Z,0.00
2022-12-31T01:23:30.288Z,0.00
2022-12-31T01:24:30.231Z,0.00
2022-12-31T01:25:30.194Z,0.00
2022-12-31T01:26:30.159Z,0.00
2022-12-31T01:27:30.115Z,0.00
2022-12-31T01:28:30.074Z,0.00
2022-12-31T01:29:30.450Z,0.00
2022-12-31T01:30:29.998Z,0.00
2022-12-31T01:31:29.975Z,0.00
2022-12-31T01:32:29.915Z,0.00
2022-12-31T01:33:29.877Z,0.00
2022-12-31T01:34:29.851Z,0.00
2022-12-31T01:35:29.792Z,0.00
2022-12-31T01:36:29.750Z,0.00
2022-12-31T01:37:29.722Z,0.00
2022-12-31T01:38:29.671Z,0.00
2022-12-31T01:39:29.633Z,0.00
2022-12-31T01:40:29.609Z,0.00
2022-12-31T01:41:29.556Z,0.00
2022-12-31T01:42:29.509Z,0.00
2022-12-31T01:43:29.472Z,0.00
2022-12-31T01:44:29.452Z,0.00
2022-12-31T01:45:29.408Z,0.00
2022-12-31T01:46:29.374Z,0.00
2022-12-31T01:47:29.321Z,0.00
2022-12-31T01:48:29.268Z,0.00
2022-12-31T01:49:29.265Z,0.00
2022-12-31T01:50:29.186Z,0.00
2022-12-31T01:51:29.173Z,0.00
2022-12-31T01:52:29.128Z,0.00
2022-12-31T01:53:29.072Z,0.00
2022-12-31T01:54:29.073Z,0.00
2022-12-31T01:55:28.994Z,0.00
2022-12-31T01:56:28.964Z,0.00
2022-12-31T01:57:28.945Z,0.00
2022-12-31T01:58:28.882Z,0.00
2022-12-31T01:59:28.836Z,0.00
2022-12-31T02:00:28.789Z,0.00
2022-12-31T02:01:28.811Z,0.00
2022-12-31T02:02:28.832Z,0.00
2022-12-31T02:03:28.778Z,0.00
2022-12-31T02:04:28.633Z,0.00
2022-12-31T02:05:28.601Z,0.00
2022-12-31T02:06:28.554Z,0.00
2022-12-31T02:07:28.515Z,0.00
2022-12-31T02:08:28.484Z,0.00
2022-12-31T02:09:28.441Z,0.00
2022-12-31T02:10:28.392Z,0.00
2022-12-31T02:11:28.357Z,0.00
2022-12-31T02:12:28.310Z,0.00
2022-12-31T02:13:28.273Z,0.00
2022-12-31T02:14:28.247Z,0.00
2022-12-31T02:15:28.193Z,0.00
2022-12-31T02:16:28.198Z,0.00
2022-12-31T02:17:28.139Z,0.00
2022-12-31T02:18:28.077Z,0.00
2022-12-31T02:19:28.036Z,0.00
2022-12-31T02:20:28.016Z,0.00
2022-12-31T02:21:28.004Z,0.00
2022-12-31T02:22:27.915Z,0.00
2022-12-31T02:23:27.889Z,0.00
2022-12-31T02:24:27.834Z,0.00
2022-12-31T02:25:27.814Z,0.00
2022-12-31T02:26:27.777Z,0.00
2022-12-31T02:27:27.726Z,0.00
2022-12-31T02:28:27.680Z,0.00
2022-12-31T02:29:27.643Z,0.00
2022-12-31T02:30:27.600Z,0.00
2022-12-31T02:31:27.577Z,0.00
2022-12-31T02:32:27.528Z,0.00
2022-12-31T02:33:27.490Z,0.00
2022-12-31T02:34:27.441Z,0.00
2022-12-31T02:35:27.408Z,0.00
2022-12-31T02:36:27.401Z,0.00
2022-12-31T02:37:27.340Z,0.00
2022-12-31T02:38:27.296Z,0.00
2022-12-31T02:39:27.251Z,0.00
2022-12-31T02:40:27.205Z,0.00
2022-12-31T02:41:27.176Z,0.00
2022-12-31T02:42:27.135Z,0.00
2022-12-31T02:43:27.093Z,0.00
2022-12-31T02:44:27.092Z,0.00
2022-12-31T02:45:27.013Z,0.00
2022-12-31T02:46:27.024Z,0.00
2022-12-31T02:47:26.934Z,0.00
2022-12-31T02:48:26.917Z,0.00
2022-12-31T02:49:26.857Z,0.00
2022-12-31T02:50:26.829Z,0.00
2022-12-31T02:51:26.780Z,0.00
2022-12-31T02:52:26.749Z,0.00
2022-12-31T02:53:26.698Z,0.00
2022-12-31T02:54:26.663Z,0.00
2022-12-31T02:55:26.644Z,0.00
2022-12-31T02:56:26.588Z,0.00
2022-12-31T02:57:26.545Z,0.00
2022-12-31T02:58:26.502Z,0.00
2022-12-31T02:59:26.471Z,0.00
2022-12-31T03:00:26.551Z,0.00
2022-12-31T03:01:26.523Z,0.00
2022-12-31T03:02:26.436Z,0.00
2022-12-31T03:03:26.309Z,0.00
2022-12-31T03:04:26.272Z,0.00
2022-12-31T03:05:26.311Z,0.00
2022-12-31T03:06:26.210Z,0.00
2022-12-31T03:07:26.157Z,0.00
2022-12-31T03:08:26.116Z,0.00
2022-12-31T03:09:26.080Z,0.00
2022-12-31T03:10:26.052Z,0.00
2022-12-31T03:11:26.017Z,0.00
2022-12-31T03:12:25.981Z,0.00
2022-12-31T03:13:25.951Z,0.00
2022-12-31T03:14:25.926Z,0.00
2022-12-31T03:15:25.853Z,0.00
2022-12-31T03:16:25.867Z,0.00
2022-12-31T03:17:25.775Z,0.00
2022-12-31T03:18:25.736Z,0.00
2022-12-31T03:19:25.687Z,0.00
2022-12-31T03:20:25.648Z,0.00
2022-12-31T03:21:25.609Z,0.00
2022-12-31T03:22:25.567Z,0.00
2022-12-31T03:23:25.529Z,0.00
2022-12-31T03:24:25.499Z,0.00
2022-12-31T03:25:25.469Z,0.00
2022-12-31T03:26:25.411Z,0.00
2022-12-31T03:27:25.380Z,0.00
2022-12-31T03:28:25.333Z,0.00
2022-12-31T03:29:25.298Z,0.00
2022-12-31T03:30:25.265Z,0.00
2022-12-31T03:31:25.259Z,0.00
2022-12-31T03:32:25.216Z,0.00
2022-12-31T03:33:25.144Z,0.00
2022-12-31T03:34:25.121Z,0.00
2022-12-31T03:35:25.105Z,0.00
2022-12-31T03:36:25.021Z,0.00
2022-12-31T03:37:24.991Z,0.00
2022-12-31T03:38:24.949Z,0.00
2022-12-31T03:39:24.906Z,0.00
2022-12-31T03:40:24.878Z,0.00
2022-12-31T03:41:24.845Z,0.00
2022-12-31T03:42:24.818Z,0.00
2022-12-31T03:43:24.758Z,0.00
2022-12-31T03:44:24.716Z,0.00
2022-12-31T03:45:24.679Z,0.00
2022-12-31T03:46:24.636Z,0.00
2022-12-31T03:47:24.596Z,0.00
2022-12-31T03:48:24.579Z,0.00
2022-12-31T03:49:24.524Z,0.00
2022-12-31T03:50:24.494Z,0.00
2022-12-31T03:51:24.450Z,0.00
2022-12-31T03:52:24.405Z,0.00
2022-12-31T03:53:24.370Z,0.00
2022-12-31T03:54:24.346Z,0.00
2022-12-31T03:55:24.308Z,0.00
2022-12-31T03:56:24.256Z,0.00
2022-12-31T03:57:24.217Z,0.00
2022-12-31T03:58:24.170Z,0.00
2022-12-31T03:59:24.137Z,0.00
2022-12-31T04:00:24.139Z,0.00
2022-12-31T04:01:24.116Z,0.00
2022-12-31T04:02:28.507Z,0.00
2022-12-31T04:03:24.017Z,0.00
2022-12-31T04:04:23.940Z,0.00
2022-12-31T04:05:23.922Z,0.00
2022-12-31T04:06:23.879Z,0.00
2022-12-31T04:07:23.820Z,0.00
2022-12-31T04:08:23.797Z,0.00
2022-12-31T04:09:23.746Z,0.00
2022-12-31T04:10:23.707Z,0.00
2022-12-31T04:11:23.712Z,0.00
2022-12-31T04:12:23.661Z,0.00
2022-12-31T04:13:23.584Z,0.00
2022-12-31T04:14:23.555Z,0.00
2022-12-31T04:15:23.528Z,0.00
2022-12-31T04:16:23.508Z,0.00
2022-12-31T04:17:23.430Z,0.00
2022-12-31T04:18:23.402Z,0.00
2022-12-31T04:19:23.355Z,0.00
2022-12-31T04:20:23.321Z,0.00
2022-12-31T04:21:23.305Z,0.00
2022-12-31T04:22:23.245Z,0.00
2022-12-31T04:23:23.212Z,0.00
2022-12-31T04:24:23.168Z,0.00
2022-12-31T04:25:23.129Z,0.00
2022-12-31T04:26:23.085Z,0.00
2022-12-31T04:27:23.077Z,0.00
2022-12-31T04:28:23.015Z,0.00
2022-12-31T04:29:22.994Z,0.00
2022-12-31T04:30:22.937Z,0.00
2022-12-31T04:31:22.923Z,0.00
2022-12-31T04:32:22.873Z,0.00
2022-12-31T04:33:22.830Z,0.00
2022-12-31T04:34:22.784Z,0.00
2022-12-31T04:35:22.751Z,0.00
2022-12-31T04:36:22.709Z,0.00
2022-12-31T04:37:22.667Z,0.00
2022-12-31T04:38:22.627Z,0.00
2022-12-31T04:39:22.581Z,0.00
2022-12-31T04:40:22.553Z,0.00
2022-12-31T04:41:22.519Z,0.00
2022-12-31T04:42:22.480Z,0.00
2022-12-31T04:43:22.443Z,0.00
2022-12-31T04:44:22.424Z,0.00
2022-12-31T04:45:22.348Z,0.00
2022-12-31T04:46:22.361Z,0.00
2022-12-31T04:47:24.045Z,0.00
2022-12-31T04:48:22.236Z,0.00
2022-12-31T04:49:22.208Z,0.00
2022-12-31T04:50:22.164Z,0.00
2022-12-31T04:51:22.123Z,0.00
2022-12-31T04:52:22.095Z,0.00
2022-12-31T04:53:22.041Z,0.00
2022-12-31T04:54:22.038Z,0.00
2022-12-31T04:55:22.041Z,0.00
2022-12-31T04:56:21.929Z,0.00
2022-12-31T04:57:22.058Z,0.00
2022-12-31T04:58:21.845Z,0.00
2022-12-31T04:59:21.826Z,0.00
2022-12-31T05:00:21.783Z,0.00
2022-12-31T05:01:22.528Z,0.00
2022-12-31T05:02:21.855Z,0.00
2022-12-31T05:03:23.130Z,0.00
2022-12-31T05:05:46.820Z,0.00
2022-12-31T05:06:52.000Z,0.00
2022-12-31T05:07:46.340Z,0.00
2022-12-31T05:14:24.829Z,0.00
2022-12-31T05:15:24.775Z,0.00
2022-12-31T05:20:06.031Z,0.00
2022-12-31T05:50:57.605Z,0.00
2022-12-31T05:56:41.626Z,0.00
2022-12-31T05:59:41.877Z,0.00
2022-12-31T06:02:20.423Z,0.00
2022-12-31T06:03:20.423Z,0.00
2022-12-31T06:04:20.286Z,0.00
2022-12-31T06:05:25.903Z,0.00
2022-12-31T06:06:20.216Z,0.00
2022-12-31T06:07:20.170Z,0.00
2022-12-31T06:08:20.144Z,0.00
2022-12-31T06:09:20.097Z,0.00
2022-12-31T06:10:20.053Z,0.00
2022-12-31T06:11:20.015Z,0.00
2022-12-31T06:12:19.970Z,0.00
2022-12-31T06:13:19.942Z,0.00
2022-12-31T06:14:19.920Z,0.00
2022-12-31T06:15:19.863Z,0.00
2022-12-31T06:16:19.903Z,0.00
2022-12-31T06:17:19.775Z,0.00
2022-12-31T06:18:19.738Z,0.00
2022-12-31T06:19:19.708Z,0.00
2022-12-31T06:20:19.662Z,0.00
2022-12-31T06:21:19.623Z,0.00
2022-12-31T06:22:19.593Z,0.00
2022-12-31T06:23:19.543Z,0.00
2022-12-31T06:24:19.504Z,0.00
2022-12-31T06:25:19.474Z,0.00
2022-12-31T06:26:19.424Z,0.00
2022-12-31T06:27:19.388Z,0.00
2022-12-31T06:28:20.547Z,0.00
2022-12-31T06:29:19.317Z,0.00
2022-12-31T06:30:19.301Z,0.00
2022-12-31T06:31:19.289Z,0.00
2022-12-31T06:32:19.193Z,0.00
2022-12-31T06:33:19.158Z,0.00
2022-12-31T06:34:19.118Z,0.00
2022-12-31T06:35:19.078Z,0.00
2022-12-31T06:36:19.083Z,0.00
2022-12-31T06:37:19.015Z,0.00
2022-12-31T06:38:18.969Z,0.00
2022-12-31T06:39:18.930Z,0.00
2022-12-31T06:40:18.888Z,0.00
2022-12-31T06:41:18.851Z,0.00
2022-12-31T06:42:18.830Z,0.00
2022-12-31T06:43:18.782Z,0.00
2022-12-31T06:44:18.733Z,0.00
2022-12-31T06:45:18.697Z,0.00
2022-12-31T06:46:18.684Z,0.00
2022-12-31T06:47:18.621Z,0.00
2022-12-31T06:48:18.598Z,0.00
2022-12-31T06:49:18.553Z,0.00
2022-12-31T06:50:18.498Z,0.00
2022-12-31T06:51:18.467Z,0.00
2022-12-31T06:52:18.429Z,0.00
2022-12-31T06:53:18.389Z,0.00
2022-12-31T06:54:18.350Z,0.00
2022-12-31T06:55:18.323Z,0.00
2022-12-31T06:56:18.273Z,0.00
2022-12-31T06:57:18.236Z,0.00
2022-12-31T06:58:18.198Z,0.00
2022-12-31T06:59:18.176Z,0.00
2022-12-31T07:00:18.121Z,0.00
2022-12-31T07:01:18.131Z,0.00
2022-12-31T07:02:18.091Z,0.00
2022-12-31T07:03:18.068Z,0.00
2022-12-31T07:04:18.096Z,0.00
2022-12-31T07:05:17.939Z,0.00
2022-12-31T07:06:17.890Z,0.00
2022-12-31T07:07:17.864Z,0.00
2022-12-31T07:08:17.813Z,0.00
2022-12-31T07:09:17.785Z,0.00
2022-12-31T07:10:17.799Z,0.00
2022-12-31T07:11:17.703Z,4.00
2022-12-31T07:12:17.660Z,4.00
2022-12-31T07:13:17.658Z,4.00
2022-12-31T07:14:17.585Z,4.00
2022-12-31T07:15:17.549Z,8.00
2022-12-31T07:16:17.536Z,8.00
2022-12-31T07:17:17.478Z,4.00
2022-12-31T07:18:17.437Z,8.00
2022-12-31T07:19:17.409Z,8.00
2022-12-31T07:20:17.363Z,12.00
2022-12-31T07:21:17.339Z,16.00
2022-12-31T07:22:17.303Z,16.00
2022-12-31T07:23:17.240Z,16.00
2022-12-31T07:24:17.226Z,24.00
2022-12-31T07:25:17.193Z,28.00
2022-12-31T07:26:17.135Z,28.00
2022-12-31T07:27:17.092Z,36.00
2022-12-31T07:28:17.064Z,44.00
2022-12-31T07:29:17.029Z,56.00
2022-12-31T07:30:16.980Z,56.00
2022-12-31T07:31:17.031Z,48.00
2022-12-31T07:32:16.941Z,44.00
2022-12-31T07:33:16.872Z,36.00
2022-12-31T07:34:16.831Z,44.00
2022-12-31T07:35:16.803Z,52.00
2022-12-31T07:36:16.781Z,52.00
2022-12-31T07:37:17.484Z,56.00
2022-12-31T07:38:16.696Z,48.00
2022-12-31T07:39:16.634Z,44.00
2022-12-31T07:40:16.592Z,40.00
2022-12-31T07:41:16.570Z,40.00
2022-12-31T07:42:16.518Z,36.00
2022-12-31T07:43:16.487Z,40.00
2022-12-31T07:44:16.438Z,44.00
2022-12-31T07:45:16.405Z,56.00
2022-12-31T07:46:16.411Z,56.00
2022-12-31T07:47:16.329Z,60.00
2022-12-31T07:48:16.306Z,56.00
2022-12-31T07:49:16.265Z,52.00
2022-12-31T07:50:16.221Z,80.00
2022-12-31T07:51:16.177Z,88.00
2022-12-31T07:52:16.154Z,84.00
2022-12-31T07:53:16.103Z,76.00
2022-12-31T07:54:16.065Z,108.00
2022-12-31T07:55:16.020Z,148.00
2022-12-31T07:56:15.995Z,184.00
2022-12-31T07:57:15.955Z,208.00
2022-12-31T07:58:15.934Z,236.00
2022-12-31T07:59:20.984Z,252.00
2022-12-31T08:00:15.842Z,264.00
2022-12-31T08:01:15.869Z,272.00
2022-12-31T08:02:15.981Z,212.00
2022-12-31T08:03:15.725Z,212.00
2022-12-31T08:04:15.692Z,248.00
2022-12-31T08:05:15.659Z,252.00
2022-12-31T08:06:15.609Z,260.00
2022-12-31T08:07:15.605Z,236.00
2022-12-31T08:08:15.540Z,252.00
2022-12-31T08:09:15.488Z,248.00
2022-12-31T08:10:18.053Z,272.00
2022-12-31T08:11:15.416Z,304.00
2022-12-31T08:12:15.391Z,324.00
2022-12-31T08:13:15.342Z,316.00
2022-12-31T08:14:15.309Z,416.00
2022-12-31T08:15:15.280Z,352.00
2022-12-31T08:16:15.283Z,380.00
2022-12-31T08:17:15.192Z,348.00
2022-12-31T08:18:15.171Z,348.00
2022-12-31T08:19:15.112Z,484.00
2022-12-31T08:20:15.077Z,536.00
2022-12-31T08:21:15.057Z,468.00
2022-12-31T08:22:15.003Z,448.00
2022-12-31T08:23:14.963Z,672.00
2022-12-31T08:24:14.924Z,884.00
2022-12-31T08:25:14.882Z,836.00
2022-12-31T08:26:14.880Z,808.00
2022-12-31T08:27:14.823Z,800.00
2022-12-31T08:28:14.784Z,832.00
2022-12-31T08:29:14.746Z,932.00
2022-12-31T08:30:14.699Z,932.00
2022-12-31T08:31:14.709Z,892.00
2022-12-31T08:32:14.621Z,1140.00
2022-12-31T08:33:14.590Z,1416.00
2022-12-31T08:34:14.561Z,1600.00
2022-12-31T08:35:14.512Z,1732.00
2022-12-31T08:36:14.472Z,1560.00
2022-12-31T08:37:14.428Z,1660.00
2022-12-31T08:38:14.398Z,1864.00
2022-12-31T08:39:14.365Z,2056.00
2022-12-31T08:40:14.332Z,2216.00
2022-12-31T08:41:14.280Z,2284.00
2022-12-31T08:42:14.241Z,2360.00
2022-12-31T08:43:14.201Z,2144.00
2022-12-31T08:44:14.168Z,1932.00
2022-12-31T08:45:14.154Z,2040.00
2022-12-31T08:46:14.165Z,1576.00
2022-12-31T08:47:14.059Z,1312.00
2022-12-31T08:48:14.024Z,1072.00
2022-12-31T08:49:14.025Z,1324.00
2022-12-31T08:50:13.939Z,1476.00
2022-12-31T08:51:13.931Z,1920.00
2022-12-31T08:52:13.876Z,1968.00
2022-12-31T08:53:13.823Z,1972.00
2022-12-31T08:54:13.790Z,2048.00
2022-12-31T08:55:13.773Z,2140.00
2022-12-31T08:56:13.724Z,2096.00
2022-12-31T08:57:13.684Z,2460.00
2022-12-31T08:58:13.648Z,2636.00
2022-12-31T08:59:13.629Z,2256.00
2022-12-31T09:00:13.565Z,2400.00
2022-12-31T09:01:13.697Z,2160.00
2022-12-31T09:02:13.571Z,2628.00
2022-12-31T09:03:13.464Z,1988.00
2022-12-31T09:04:13.444Z,1680.00
2022-12-31T09:05:13.375Z,2188.00
2022-12-31T09:06:13.359Z,1632.00
2022-12-31T09:07:13.295Z,1228.00
2022-12-31T09:08:13.306Z,1536.00
2022-12-31T09:09:13.226Z,1892.00
2022-12-31T09:10:13.194Z,1476.00
2022-12-31T09:11:17.745Z,1640.00
2022-12-31T09:12:13.124Z,2096.00
2022-12-31T09:13:13.091Z,2020.00
2022-12-31T09:14:13.042Z,2380.00
2022-12-31T09:15:12.995Z,1988.00
2022-12-31T09:16:13.017Z,1216.00
2022-12-31T09:17:12.927Z,1236.00
2022-12-31T09:18:12.901Z,1224.00
2022-12-31T09:19:12.847Z,1148.00
2022-12-31T09:20:12.822Z,1320.00
2022-12-31T09:21:12.772Z,1152.00
2022-12-31T09:22:12.738Z,876.00
2022-12-31T09:23:12.729Z,964.00
2022-12-31T09:24:12.675Z,1152.00
2022-12-31T09:25:12.615Z,1180.00
2022-12-31T09:26:12.585Z,1280.00
2022-12-31T09:27:12.570Z,1056.00
2022-12-31T09:28:12.525Z,1016.00
2022-12-31T09:29:12.484Z,1400.00
2022-12-31T09:30:12.451Z,1792.00
2022-12-31T09:31:12.394Z,1752.00
2022-12-31T09:32:12.373Z,2280.00
2022-12-31T09:33:12.317Z,2700.00
2022-12-31T09:34:12.283Z,1908.00
2022-12-31T09:35:12.269Z,1676.00
2022-12-31T09:36:12.209Z,1740.00
2022-12-31T09:37:12.172Z,1376.00
2022-12-31T09:38:12.186Z,1396.00
2022-12-31T09:39:12.106Z,1484.00
2022-12-31T09:40:12.059Z,1840.00
2022-12-31T09:41:12.034Z,2144.00
2022-12-31T09:42:11.984Z,1700.00
2022-12-31T09:43:11.944Z,1836.00
2022-12-31T09:44:11.911Z,2036.00
2022-12-31T09:45:11.868Z,2048.00
2022-12-31T09:46:11.872Z,2356.00
2022-12-31T09:47:11.801Z,2648.00
2022-12-31T09:48:11.777Z,2504.00
2022-12-31T09:49:11.719Z,2288.00
2022-12-31T09:50:11.761Z,2696.00
2022-12-31T09:51:11.644Z,3316.00
2022-12-31T09:52:11.746Z,3200.00
2022-12-31T09:53:11.566Z,3088.00
2022-12-31T09:54:11.549Z,2824.00
2022-12-31T09:55:11.508Z,2104.00
2022-12-31T09:56:11.467Z,1964.00
2022-12-31T09:57:11.421Z,2120.00
2022-12-31T09:58:11.382Z,1868.00
2022-12-31T09:59:11.350Z,1448.00
2022-12-31T10:00:11.343Z,1288.00
2022-12-31T10:01:11.323Z,1344.00
2022-12-31T10:02:11.584Z,1848.00
2022-12-31T10:03:11.277Z,2240.00
2022-12-31T10:04:11.158Z,2928.00
2022-12-31T10:05:11.123Z,3148.00
2022-12-31T10:06:11.097Z,2964.00
2022-12-31T10:07:11.044Z,2428.00
2022-12-31T10:08:11.008Z,2380.00
2022-12-31T10:09:10.965Z,2800.00
2022-12-31T10:10:10.941Z,2468.00
2022-12-31T10:11:10.892Z,2716.00
2022-12-31T10:12:10.882Z,2576.00
2022-12-31T10:13:10.817Z,2612.00
2022-12-31T10:14:10.789Z,2448.00
2022-12-31T10:15:10.744Z,3140.00
2022-12-31T10:16:10.723Z,3236.00
2022-12-31T10:17:10.711Z,3632.00
2022-12-31T10:18:10.630Z,4368.00
2022-12-31T10:19:10.597Z,5040.00
2022-12-31T10:20:10.560Z,5384.00
2022-12-31T10:21:10.528Z,5516.00
2022-12-31T10:22:10.485Z,5388.00
2022-12-31T10:23:10.469Z,5344.00
2022-12-31T10:24:10.424Z,5008.00
2022-12-31T10:25:10.399Z,4364.00
2022-12-31T10:26:10.364Z,3460.00
2022-12-31T10:27:10.291Z,3084.00
2022-12-31T10:28:10.260Z,3032.00
2022-12-31T10:29:10.249Z,3352.00
2022-12-31T10:30:10.185Z,3216.00
2022-12-31T10:31:10.166Z,2692.00
2022-12-31T10:32:10.115Z,2988.00
2022-12-31T10:33:10.072Z,3220.00
2022-12-31T10:34:10.042Z,3536.00
2022-12-31T10:35:10.012Z,4076.00
2022-12-31T10:36:09.966Z,3236.00
2022-12-31T10:37:09.921Z,3248.00
2022-12-31T10:38:09.908Z,4008.00
2022-12-31T10:39:14.506Z,3668.00
2022-12-31T10:40:09.833Z,2892.00
2022-12-31T10:41:09.777Z,2780.00
2022-12-31T10:42:09.743Z,3164.00
2022-12-31T10:43:09.697Z,3584.00
2022-12-31T10:44:09.665Z,3544.00
2022-12-31T10:45:09.640Z,3696.00
2022-12-31T10:46:09.637Z,4372.00
2022-12-31T10:47:09.553Z,4608.00
2022-12-31T10:48:09.531Z,5024.00
2022-12-31T10:49:09.485Z,4432.00
2022-12-31T10:50:09.442Z,4408.00
2022-12-31T10:51:09.415Z,4232.00
2022-12-31T10:52:09.382Z,3608.00
2022-12-31T10:53:09.331Z,3732.00
2022-12-31T10:54:09.304Z,3644.00
2022-12-31T10:55:09.259Z,4176.00
2022-12-31T10:56:09.237Z,4500.00
2022-12-31T10:57:09.198Z,4852.00
2022-12-31T10:58:09.143Z,5108.00
2022-12-31T10:59:09.109Z,5152.00
2022-12-31T11:00:09.088Z,5440.00
2022-12-31T11:01:09.176Z,5684.00
2022-12-31T11:02:09.261Z,6028.00
2022-12-31T11:03:08.977Z,6376.00
2022-12-31T11:04:08.925Z,6996.00
2022-12-31T11:05:08.883Z,6720.00
2022-12-31T11:06:08.850Z,6532.00
2022-12-31T11:07:08.807Z,6320.00
2022-12-31T11:08:08.784Z,6268.00
2022-12-31T11:09:08.742Z,5944.00
2022-12-31T11:10:08.707Z,5320.00
2022-12-31T11:11:08.658Z,4116.00
2022-12-31T11:12:08.635Z,3320.00
2022-12-31T11:13:08.596Z,2752.00
2022-12-31T11:14:08.555Z,3528.00
2022-12-31T11:15:08.513Z,4444.00
2022-12-31T11:16:08.554Z,4588.00
2022-12-31T11:17:08.451Z,4812.00
2022-12-31T11:18:08.423Z,5608.00
2022-12-31T11:19:08.366Z,5288.00
2022-12-31T11:20:08.326Z,4520.00
2022-12-31T11:21:19.685Z,4960.00
2022-12-31T11:22:08.275Z,3600.00
2022-12-31T11:23:08.213Z,3856.00
2022-12-31T11:24:08.199Z,5216.00
2022-12-31T11:25:08.140Z,6620.00
2022-12-31T11:26:08.112Z,7328.00
2022-12-31T11:27:08.065Z,6116.00
2022-12-31T11:28:08.037Z,5268.00
2022-12-31T11:29:07.998Z,4768.00
2022-12-31T11:30:07.977Z,4164.00
2022-12-31T11:31:07.985Z,3384.00
2022-12-31T11:32:07.886Z,3024.00
2022-12-31T11:33:07.847Z,2840.00
2022-12-31T11:34:07.811Z,2992.00
2022-12-31T11:35:07.775Z,3432.00
2022-12-31T11:36:07.752Z,2924.00
2022-12-31T11:37:07.693Z,3568.00
2022-12-31T11:38:07.663Z,3600.00
2022-12-31T11:39:07.622Z,3364.00
2022-12-31T11:40:08.118Z,3352.00
2022-12-31T11:41:07.560Z,2352.00
2022-12-31T11:42:07.517Z,2452.00
2022-12-31T11:43:07.480Z,3028.00
2022-12-31T11:44:07.439Z,2636.00
2022-12-31T11:45:07.413Z,2328.00
2022-12-31T11:46:07.416Z,2732.00
2022-12-31T11:47:07.333Z,2064.00
2022-12-31T11:49:07.252Z,2096.00
2022-12-31T11:50:07.219Z,2136.00
2022-12-31T11:51:07.176Z,2324.00
2022-12-31T11:52:07.155Z,1536.00
2022-12-31T11:53:07.102Z,1336.00
2022-12-31T11:54:07.076Z,1532.00
2022-12-31T11:55:07.039Z,1924.00
2022-12-31T11:56:06.994Z,1452.00
2022-12-31T11:57:06.992Z,1392.00
2022-12-31T11:58:06.922Z,1384.00
2022-12-31T11:59:11.039Z,1348.00
2022-12-31T12:00:06.843Z,1308.00
2022-12-31T12:01:06.855Z,1240.00
2022-12-31T12:02:06.779Z,1144.00
2022-12-31T12:03:06.866Z,1388.00
2022-12-31T12:04:06.746Z,1268.00
2022-12-31T12:05:10.957Z,1088.00
2022-12-31T12:06:06.627Z,1044.00
2022-12-31T12:07:06.584Z,1072.00
2022-12-31T12:08:06.556Z,936.00
2022-12-31T12:09:06.522Z,1112.00
2022-12-31T12:10:06.481Z,1172.00
2022-12-31T12:11:06.446Z,1264.00
2022-12-31T12:12:06.394Z,1436.00
2022-12-31T12:13:06.376Z,1372.00
2022-12-31T12:14:06.336Z,1616.00
2022-12-31T12:15:06.292Z,1260.00
2022-12-31T12:16:06.369Z,1084.00
2022-12-31T12:17:06.221Z,1016.00
2022-12-31T12:18:06.176Z,1140.00
2022-12-31T12:19:06.159Z,1040.00
2022-12-31T12:20:06.092Z,1220.00
2022-12-31T12:21:06.059Z,1408.00
2022-12-31T12:22:06.027Z,1604.00
2022-12-31T12:23:06.008Z,1352.00
2022-12-31T12:24:05.949Z,1496.00
2022-12-31T12:25:05.922Z,1360.00
2022-12-31T12:26:05.878Z,936.00
2022-12-31T12:27:05.840Z,1172.00
2022-12-31T12:28:05.796Z,1956.00
2022-12-31T12:29:05.760Z,2200.00
2022-12-31T12:30:05.720Z,2208.00
2022-12-31T12:31:05.759Z,1972.00
2022-12-31T12:32:05.648Z,1964.00
2022-12-31T12:33:05.611Z,1536.00
2022-12-31T12:34:05.570Z,1536.00
2022-12-31T12:35:05.538Z,1788.00
2022-12-31T12:36:05.507Z,1744.00
2022-12-31T12:37:05.463Z,1704.00
2022-12-31T12:38:05.420Z,1944.00
2022-12-31T12:39:05.389Z,1700.00
2022-12-31T12:40:05.349Z,1536.00
2022-12-31T12:41:05.565Z,1872.00
2022-12-31T12:42:05.292Z,2264.00
2022-12-31T12:43:05.235Z,2176.00
2022-12-31T12:44:05.197Z,1860.00
2022-12-31T12:45:05.175Z,1640.00
2022-12-31T12:46:05.119Z,2128.00
2022-12-31T12:47:05.167Z,2472.00
2022-12-31T12:48:05.057Z,2468.00
2022-12-31T12:49:05.011Z,2468.00
2022-12-31T12:50:04.968Z,2140.00
2022-12-31T12:51:04.936Z,1904.00
2022-12-31T12:52:04.897Z,1876.00
2022-12-31T12:53:04.866Z,1856.00
2022-12-31T12:54:04.820Z,1860.00
2022-12-31T12:55:04.788Z,1896.00
2022-12-31T12:56:04.743Z,1696.00
2022-12-31T12:57:04.744Z,1272.00
2022-12-31T12:58:04.679Z,1180.00
2022-12-31T12:59:04.632Z,1100.00
2022-12-31T13:00:04.618Z,1448.00
2022-12-31T13:01:04.632Z,1300.00
2022-12-31T13:02:04.583Z,1264.00
2022-12-31T13:03:04.521Z,1512.00
2022-12-31T13:05:04.409Z,1704.00
2022-12-31T13:06:04.363Z,1516.00
2022-12-31T13:07:04.333Z,1532.00
2022-12-31T13:08:04.288Z,1604.00
2022-12-31T13:09:04.282Z,1488.00
2022-12-31T13:10:04.212Z,1756.00
2022-12-31T13:11:04.177Z,1888.00
2022-12-31T13:12:07.760Z,1732.00
2022-12-31T13:13:33.914Z,1244.00
2022-12-31T13:14:04.087Z,1156.00
2022-12-31T13:15:04.042Z,1332.00
2022-12-31T13:16:04.046Z,1968.00
2022-12-31T13:17:03.949Z,2468.00
2022-12-31T13:18:03.962Z,2888.00
2022-12-31T13:19:03.874Z,2996.00
2022-12-31T13:20:03.838Z,3412.00
2022-12-31T13:21:03.816Z,3756.00
2022-12-31T13:22:04.043Z,4016.00
2022-12-31T13:23:03.721Z,3532.00
2022-12-31T13:24:03.704Z,2580.00
2022-12-31T13:25:03.646Z,2076.00
2022-12-31T23:15:15.287Z,0.00
2022-12-31T23:16:15.215Z,0.00
2022-12-31T23:17:31.091Z,0.00
2022-12-31T23:18:15.097Z,0.00
2022-12-31T23:19:15.055Z,0.00
2022-12-31T23:20:15.032Z,0.00
2022-12-31T23:21:14.977Z,0.00
2022-12-31T23:22:22.946Z,0.00
2022-12-31T23:23:14.902Z,0.00
2022-12-31T23:24:21.394Z,0.00
2022-12-31T23:25:14.817Z,0.00